sensor_id;sensor_type;location;lat;lon;timestamp;P1;durP1;ratioP1;P2;durP2;ratioP2
4430;SDS011;2228;48.140;11.488;2023-05-29T01:39:02;15.40;;;8.40;;
4430;SDS011;2228;48.140;11.488;2023-05-29T01:41:31;19.17;;;8.60;;
4430;SDS011;2228;48.140;11.488;2023-05-29T01:43:59;16.50;;;8.38;;
4430;SDS011;2228;48.140;11.488;2023-05-29T01:46:28;14.00;;;8.70;;
4430;SDS011;2228;48.140;11.488;2023-05-29T01:48:59;17.60;;;9.53;;
4430;SDS011;2228;48.140;11.488;2023-05-29T01:51:28;14.57;;;8.60;;
4430;SDS011;2228;48.140;11.488;2023-05-29T01:53:57;13.73;;;8.15;;
4430;SDS011;2228;48.140;11.488;2023-05-29T01:56:28;16.33;;;8.68;;
4430;SDS011;2228;48.140;11.488;2023-05-29T01:58:57;14.98;;;7.75;;
4430;SDS011;2228;48.140;11.488;2023-05-29T02:01:25;13.13;;;8.60;;
4430;SDS011;2228;48.140;11.488;2023-05-29T02:03:53;13.98;;;8.32;;
4430;SDS011;2228;48.140;11.488;2023-05-29T02:06:20;14.90;;;8.63;;
4430;SDS011;2228;48.140;11.488;2023-05-29T02:08:47;14.43;;;8.50;;
4430;SDS011;2228;48.140;11.488;2023-05-29T02:11:14;15.87;;;9.30;;
4430;SDS011;2228;48.140;11.488;2023-05-29T02:13:44;15.65;;;9.38;;
4430;SDS011;2228;48.140;11.488;2023-05-29T02:16:11;19.90;;;9.00;;
4430;SDS011;2228;48.140;11.488;2023-05-29T02:18:38;12.77;;;8.70;;
4430;SDS011;2228;48.140;11.488;2023-05-29T02:21:06;16.63;;;8.80;;
4430;SDS011;2228;48.140;11.488;2023-05-29T02:23:36;16.40;;;8.90;;
4430;SDS011;2228;48.140;11.488;2023-05-29T02:26:04;14.85;;;8.40;;
4430;SDS011;2228;48.140;11.488;2023-05-29T02:28:31;17.92;;;9.20;;
4430;SDS011;2228;48.140;11.488;2023-05-29T02:31:00;16.02;;;9.05;;
4430;SDS011;2228;48.140;11.488;2023-05-29T02:33:28;14.65;;;8.50;;
4430;SDS011;2228;48.140;11.488;2023-05-29T02:35:55;16.85;;;9.15;;
4430;SDS011;2228;48.140;11.488;2023-05-29T02:38:22;16.27;;;9.15;;
4430;SDS011;2228;48.140;11.488;2023-05-29T02:40:50;14.63;;;8.65;;
4430;SDS011;2228;48.140;11.488;2023-05-29T02:43:21;16.23;;;9.50;;
4430;SDS011;2228;48.140;11.488;2023-05-29T02:45:48;15.25;;;8.90;;
4430;SDS011;2228;48.140;11.488;2023-05-29T02:48:27;18.10;;;9.00;;
4430;SDS011;2228;48.140;11.488;2023-05-29T02:50:55;17.48;;;8.98;;
4430;SDS011;2228;48.140;11.488;2023-05-29T02:53:22;17.95;;;9.27;;
4430;SDS011;2228;48.140;11.488;2023-05-29T02:55:50;15.18;;;8.60;;
4430;SDS011;2228;48.140;11.488;2023-05-29T02:58:18;16.85;;;9.02;;
4430;SDS011;2228;48.140;11.488;2023-05-29T03:00:46;13.35;;;8.20;;
4430;SDS011;2228;48.140;11.488;2023-05-29T03:03:13;13.10;;;7.80;;
4430;SDS011;2228;48.140;11.488;2023-05-29T03:05:42;18.15;;;9.10;;
4430;SDS011;2228;48.140;11.488;2023-05-29T03:08:10;16.73;;;9.05;;
4430;SDS011;2228;48.140;11.488;2023-05-29T03:10:37;16.80;;;8.87;;
4430;SDS011;2228;48.140;11.488;2023-05-29T03:13:05;15.97;;;10.00;;
4430;SDS011;2228;48.140;11.488;2023-05-29T03:15:33;16.90;;;8.80;;
4430;SDS011;2228;48.140;11.488;2023-05-29T03:18:01;18.70;;;8.90;;
4430;SDS011;2228;48.140;11.488;2023-05-29T03:20:28;14.68;;;8.70;;
4430;SDS011;2228;48.140;11.488;2023-05-29T03:22:59;15.63;;;9.70;;
4430;SDS011;2228;48.140;11.488;2023-05-29T03:25:26;14.77;;;9.55;;
4430;SDS011;2228;48.140;11.488;2023-05-29T03:27:53;15.88;;;9.30;;
4430;SDS011;2228;48.140;11.488;2023-05-29T03:30:21;17.60;;;9.10;;
4430;SDS011;2228;48.140;11.488;2023-05-29T03:32:48;15.70;;;9.70;;
4430;SDS011;2228;48.140;11.488;2023-05-29T03:35:15;16.58;;;8.95;;
4430;SDS011;2228;48.140;11.488;2023-05-29T03:37:43;16.65;;;9.65;;
4430;SDS011;2228;48.140;11.488;2023-05-29T03:40:13;17.90;;;9.45;;
4430;SDS011;2228;48.140;11.488;2023-05-29T03:42:40;14.00;;;9.20;;
4430;SDS011;2228;48.140;11.488;2023-05-29T03:45:08;13.93;;;8.70;;
4430;SDS011;2228;48.140;11.488;2023-05-29T03:47:35;14.85;;;8.88;;
4430;SDS011;2228;48.140;11.488;2023-05-29T03:50:03;14.77;;;9.00;;
4430;SDS011;2228;48.140;11.488;2023-05-29T03:52:31;16.60;;;9.30;;
4430;SDS011;2228;48.140;11.488;2023-05-29T03:54:59;16.10;;;9.23;;
4430;SDS011;2228;48.140;11.488;2023-05-29T03:57:28;14.23;;;8.70;;
4430;SDS011;2228;48.140;11.488;2023-05-29T03:59:55;15.68;;;9.27;;
4430;SDS011;2228;48.140;11.488;2023-05-29T04:02:22;12.40;;;8.70;;
4430;SDS011;2228;48.140;11.488;2023-05-29T04:04:49;12.87;;;8.60;;
4430;SDS011;2228;48.140;11.488;2023-05-29T04:07:18;15.23;;;8.35;;
4430;SDS011;2228;48.140;11.488;2023-05-29T04:09:45;18.25;;;10.20;;
4430;SDS011;2228;48.140;11.488;2023-05-29T04:12:13;16.20;;;8.98;;
4430;SDS011;2228;48.140;11.488;2023-05-29T04:14:43;15.60;;;9.48;;
4430;SDS011;2228;48.140;11.488;2023-05-29T04:17:10;14.50;;;8.50;;
4430;SDS011;2228;48.140;11.488;2023-05-29T04:19:39;15.02;;;8.50;;
4430;SDS011;2228;48.140;11.488;2023-05-29T04:22:06;19.45;;;10.02;;
4430;SDS011;2228;48.140;11.488;2023-05-29T04:24:33;15.25;;;9.15;;
4430;SDS011;2228;48.140;11.488;2023-05-29T04:27:01;15.57;;;9.07;;
4430;SDS011;2228;48.140;11.488;2023-05-29T04:29:29;15.73;;;9.23;;
4430;SDS011;2228;48.140;11.488;2023-05-29T04:31:59;16.88;;;9.00;;
4430;SDS011;2228;48.140;11.488;2023-05-29T04:34:28;18.33;;;8.35;;
4430;SDS011;2228;48.140;11.488;2023-05-29T04:36:56;18.38;;;9.05;;
4430;SDS011;2228;48.140;11.488;2023-05-29T04:39:24;15.57;;;8.10;;
4430;SDS011;2228;48.140;11.488;2023-05-29T04:41:52;13.93;;;8.40;;
4430;SDS011;2228;48.140;11.488;2023-05-29T04:44:21;15.98;;;8.15;;
4430;SDS011;2228;48.140;11.488;2023-05-29T04:46:51;17.30;;;9.25;;
4430;SDS011;2228;48.140;11.488;2023-05-29T04:49:20;15.80;;;9.10;;
4430;SDS011;2228;48.140;11.488;2023-05-29T04:51:47;17.27;;;8.50;;
4430;SDS011;2228;48.140;11.488;2023-05-29T04:54:17;17.25;;;9.02;;
4430;SDS011;2228;48.140;11.488;2023-05-29T04:56:47;14.43;;;9.10;;
4430;SDS011;2228;48.140;11.488;2023-05-29T04:59:14;19.95;;;9.80;;
4430;SDS011;2228;48.140;11.488;2023-05-29T05:01:42;15.55;;;9.55;;
4430;SDS011;2228;48.140;11.488;2023-05-29T05:04:12;15.30;;;9.20;;
4430;SDS011;2228;48.140;11.488;2023-05-29T05:06:41;16.77;;;9.18;;
4430;SDS011;2228;48.140;11.488;2023-05-29T05:09:09;17.70;;;9.73;;
4430;SDS011;2228;48.140;11.488;2023-05-29T05:11:37;21.23;;;10.13;;
4430;SDS011;2228;48.140;11.488;2023-05-29T05:14:04;17.80;;;9.30;;
4430;SDS011;2228;48.140;11.488;2023-05-29T05:16:32;16.17;;;9.43;;
4430;SDS011;2228;48.140;11.488;2023-05-29T05:18:59;15.23;;;9.23;;
4430;SDS011;2228;48.140;11.488;2023-05-29T05:21:27;16.50;;;9.55;;
4430;SDS011;2228;48.140;11.488;2023-05-29T05:23:59;17.02;;;9.85;;
4430;SDS011;2228;48.140;11.488;2023-05-29T05:26:26;17.10;;;9.77;;
4430;SDS011;2228;48.140;11.488;2023-05-29T05:28:54;15.75;;;9.73;;
4430;SDS011;2228;48.140;11.488;2023-05-29T05:31:22;18.45;;;9.88;;
4430;SDS011;2228;48.140;11.488;2023-05-29T05:33:51;17.58;;;10.30;;
4430;SDS011;2228;48.140;11.488;2023-05-29T05:36:19;16.80;;;9.77;;
4430;SDS011;2228;48.140;11.488;2023-05-29T05:38:46;15.03;;;9.47;;
4430;SDS011;2228;48.140;11.488;2023-05-29T05:41:15;14.38;;;9.52;;
4430;SDS011;2228;48.140;11.488;2023-05-29T05:43:42;16.92;;;8.80;;
4430;SDS011;2228;48.140;11.488;2023-05-29T05:46:09;14.80;;;9.40;;
4430;SDS011;2228;48.140;11.488;2023-05-29T05:48:36;19.00;;;10.20;;
4430;SDS011;2228;48.140;11.488;2023-05-29T05:51:03;16.88;;;9.43;;
4430;SDS011;2228;48.140;11.488;2023-05-29T05:53:30;17.52;;;9.65;;
4430;SDS011;2228;48.140;11.488;2023-05-29T05:55:58;17.83;;;9.55;;
4430;SDS011;2228;48.140;11.488;2023-05-29T05:58:27;16.60;;;9.27;;
4430;SDS011;2228;48.140;11.488;2023-05-29T06:00:54;15.05;;;8.90;;
4430;SDS011;2228;48.140;11.488;2023-05-29T06:03:22;10.98;;;7.93;;
4430;SDS011;2228;48.140;11.488;2023-05-29T06:05:49;13.75;;;8.20;;
4430;SDS011;2228;48.140;11.488;2023-05-29T06:08:19;15.47;;;8.23;;
4430;SDS011;2228;48.140;11.488;2023-05-29T06:10:46;13.45;;;8.15;;
4430;SDS011;2228;48.140;11.488;2023-05-29T06:13:13;12.45;;;7.68;;
4430;SDS011;2228;48.140;11.488;2023-05-29T06:15:43;13.32;;;7.30;;
4430;SDS011;2228;48.140;11.488;2023-05-29T06:18:11;15.10;;;8.02;;
4430;SDS011;2228;48.140;11.488;2023-05-29T06:20:38;12.68;;;7.60;;
4430;SDS011;2228;48.140;11.488;2023-05-29T06:23:06;10.97;;;7.40;;
4430;SDS011;2228;48.140;11.488;2023-05-29T06:25:33;13.25;;;8.00;;
4430;SDS011;2228;48.140;11.488;2023-05-29T06:28:00;12.80;;;7.10;;
4430;SDS011;2228;48.140;11.488;2023-05-29T06:30:31;10.60;;;6.80;;
4430;SDS011;2228;48.140;11.488;2023-05-29T06:32:59;12.03;;;7.00;;
4430;SDS011;2228;48.140;11.488;2023-05-29T06:35:27;12.70;;;6.60;;
4430;SDS011;2228;48.140;11.488;2023-05-29T06:37:54;10.30;;;6.90;;
4430;SDS011;2228;48.140;11.488;2023-05-29T06:40:21;12.50;;;6.90;;
4430;SDS011;2228;48.140;11.488;2023-05-29T06:42:48;11.40;;;7.35;;
4430;SDS011;2228;48.140;11.488;2023-05-29T06:45:15;15.00;;;7.27;;
4430;SDS011;2228;48.140;11.488;2023-05-29T06:47:43;13.60;;;7.13;;
4430;SDS011;2228;48.140;11.488;2023-05-29T06:50:11;13.05;;;6.40;;
4430;SDS011;2228;48.140;11.488;2023-05-29T06:52:38;8.80;;;5.88;;
4430;SDS011;2228;48.140;11.488;2023-05-29T06:55:05;9.43;;;6.20;;
4430;SDS011;2228;48.140;11.488;2023-05-29T06:57:33;10.25;;;6.40;;
4430;SDS011;2228;48.140;11.488;2023-05-29T07:00:00;8.57;;;5.70;;
4430;SDS011;2228;48.140;11.488;2023-05-29T07:02:28;11.70;;;6.00;;
4430;SDS011;2228;48.140;11.488;2023-05-29T07:04:55;11.15;;;6.07;;
4430;SDS011;2228;48.140;11.488;2023-05-29T07:07:24;16.48;;;7.10;;
4430;SDS011;2228;48.140;11.488;2023-05-29T07:09:51;14.35;;;6.35;;
4430;SDS011;2228;48.140;11.488;2023-05-29T07:12:18;10.48;;;6.38;;
4430;SDS011;2228;48.140;11.488;2023-05-29T07:14:45;12.57;;;6.13;;
4430;SDS011;2228;48.140;11.488;2023-05-29T07:17:13;11.32;;;6.43;;
4430;SDS011;2228;48.140;11.488;2023-05-29T07:19:40;9.20;;;5.70;;
4430;SDS011;2228;48.140;11.488;2023-05-29T07:22:07;10.50;;;6.17;;
4430;SDS011;2228;48.140;11.488;2023-05-29T07:24:35;9.68;;;5.50;;
4430;SDS011;2228;48.140;11.488;2023-05-29T07:27:02;10.27;;;5.93;;
4430;SDS011;2228;48.140;11.488;2023-05-29T07:29:33;13.05;;;5.82;;
4430;SDS011;2228;48.140;11.488;2023-05-29T07:32:00;9.82;;;5.60;;
4430;SDS011;2228;48.140;11.488;2023-05-29T07:34:28;9.20;;;5.65;;
4430;SDS011;2228;48.140;11.488;2023-05-29T07:36:57;9.32;;;5.70;;
4430;SDS011;2228;48.140;11.488;2023-05-29T07:39:28;11.60;;;5.60;;
4430;SDS011;2228;48.140;11.488;2023-05-29T07:42:21;10.50;;;5.68;;
4430;SDS011;2228;48.140;11.488;2023-05-29T12:55:53;5.90;;;3.47;;
4430;SDS011;2228;48.140;11.488;2023-05-29T12:58:22;3.65;;;3.10;;
4430;SDS011;2228;48.140;11.488;2023-05-29T13:00:51;4.70;;;3.38;;
4430;SDS011;2228;48.140;11.488;2023-05-29T13:03:20;4.07;;;3.10;;
4430;SDS011;2228;48.140;11.488;2023-05-29T13:05:49;3.67;;;3.28;;
4430;SDS011;2228;48.140;11.488;2023-05-29T13:08:16;3.92;;;3.40;;
4430;SDS011;2228;48.140;11.488;2023-05-29T13:10:43;3.85;;;2.90;;
4430;SDS011;2228;48.140;11.488;2023-05-29T13:13:12;3.90;;;3.00;;
4430;SDS011;2228;48.140;11.488;2023-05-29T13:15:39;3.05;;;2.60;;
4430;SDS011;2228;48.140;11.488;2023-05-29T13:18:06;4.80;;;3.00;;
4430;SDS011;2228;48.140;11.488;2023-05-29T13:20:33;3.95;;;3.05;;
4430;SDS011;2228;48.140;11.488;2023-05-29T13:23:00;4.00;;;3.10;;
4430;SDS011;2228;48.140;11.488;2023-05-29T13:25:27;4.95;;;2.95;;
4430;SDS011;2228;48.140;11.488;2023-05-29T13:27:53;4.25;;;3.10;;
4430;SDS011;2228;48.140;11.488;2023-05-29T13:30:22;3.40;;;3.10;;
4430;SDS011;2228;48.140;11.488;2023-05-29T13:32:49;4.25;;;2.83;;
4430;SDS011;2228;48.140;11.488;2023-05-29T13:35:17;5.70;;;3.30;;
4430;SDS011;2228;48.140;11.488;2023-05-29T13:37:43;3.40;;;2.90;;
4430;SDS011;2228;48.140;11.488;2023-05-29T13:40:11;3.30;;;3.00;;
4430;SDS011;2228;48.140;11.488;2023-05-29T13:42:38;4.53;;;3.70;;
4430;SDS011;2228;48.140;11.488;2023-05-29T13:45:06;3.45;;;3.15;;
4430;SDS011;2228;48.140;11.488;2023-05-29T13:47:35;3.58;;;3.28;;
4430;SDS011;2228;48.140;11.488;2023-05-29T13:50:03;3.93;;;3.07;;
4430;SDS011;2228;48.140;11.488;2023-05-29T13:52:31;3.50;;;3.20;;
4430;SDS011;2228;48.140;11.488;2023-05-29T13:54:58;3.42;;;3.00;;
4430;SDS011;2228;48.140;11.488;2023-05-29T13:57:31;3.97;;;3.50;;
4430;SDS011;2228;48.140;11.488;2023-05-29T13:59:58;5.45;;;3.20;;
4430;SDS011;2228;48.140;11.488;2023-05-29T14:02:27;5.65;;;3.70;;
4430;SDS011;2228;48.140;11.488;2023-05-29T14:04:55;4.93;;;2.90;;
4430;SDS011;2228;48.140;11.488;2023-05-29T14:07:22;4.55;;;3.47;;
4430;SDS011;2228;48.140;11.488;2023-05-29T14:09:50;5.60;;;2.92;;
4430;SDS011;2228;48.140;11.488;2023-05-29T14:12:16;5.00;;;3.30;;
4430;SDS011;2228;48.140;11.488;2023-05-29T14:14:43;6.40;;;3.30;;
4430;SDS011;2228;48.140;11.488;2023-05-29T14:17:10;7.18;;;3.30;;
4430;SDS011;2228;48.140;11.488;2023-05-29T14:19:37;4.30;;;3.10;;
4430;SDS011;2228;48.140;11.488;2023-05-29T14:22:06;4.10;;;3.20;;
4430;SDS011;2228;48.140;11.488;2023-05-29T14:24:33;4.43;;;3.10;;
4430;SDS011;2228;48.140;11.488;2023-05-29T14:27:01;4.43;;;3.30;;
4430;SDS011;2228;48.140;11.488;2023-05-29T14:29:30;5.93;;;3.33;;
4430;SDS011;2228;48.140;11.488;2023-05-29T14:31:57;6.35;;;3.90;;
4430;SDS011;2228;48.140;11.488;2023-05-29T14:34:24;3.83;;;3.30;;
4430;SDS011;2228;48.140;11.488;2023-05-29T14:36:51;4.50;;;3.80;;
4430;SDS011;2228;48.140;11.488;2023-05-29T14:39:20;5.43;;;3.10;;
4430;SDS011;2228;48.140;11.488;2023-05-29T14:41:46;5.82;;;2.80;;
4430;SDS011;2228;48.140;11.488;2023-05-29T14:44:14;3.60;;;3.10;;
4430;SDS011;2228;48.140;11.488;2023-05-29T14:46:41;3.58;;;2.80;;
4430;SDS011;2228;48.140;11.488;2023-05-29T14:49:08;6.55;;;3.95;;
4430;SDS011;2228;48.140;11.488;2023-05-29T14:51:35;6.00;;;3.90;;
4430;SDS011;2228;48.140;11.488;2023-05-29T14:54:04;4.65;;;3.65;;
4430;SDS011;2228;48.140;11.488;2023-05-29T14:56:32;3.30;;;3.00;;
4430;SDS011;2228;48.140;11.488;2023-05-29T14:58:59;3.70;;;2.60;;
4430;SDS011;2228;48.140;11.488;2023-05-29T15:01:26;4.72;;;2.90;;
4430;SDS011;2228;48.140;11.488;2023-05-29T15:03:53;5.03;;;2.85;;
4430;SDS011;2228;48.140;11.488;2023-05-29T15:06:20;3.33;;;2.80;;
4430;SDS011;2228;48.140;11.488;2023-05-29T15:08:48;3.47;;;2.80;;
4430;SDS011;2228;48.140;11.488;2023-05-29T15:11:16;3.85;;;2.65;;
4430;SDS011;2228;48.140;11.488;2023-05-29T15:13:46;3.78;;;2.90;;
4430;SDS011;2228;48.140;11.488;2023-05-29T15:16:13;4.68;;;3.00;;
4430;SDS011;2228;48.140;11.488;2023-05-29T15:18:41;4.35;;;3.30;;
4430;SDS011;2228;48.140;11.488;2023-05-29T15:21:08;4.10;;;2.85;;
4430;SDS011;2228;48.140;11.488;2023-05-29T15:23:35;3.33;;;2.90;;
4430;SDS011;2228;48.140;11.488;2023-05-29T15:26:04;3.35;;;2.55;;
4430;SDS011;2228;48.140;11.488;2023-05-29T15:28:33;4.28;;;2.75;;
4430;SDS011;2228;48.140;11.488;2023-05-29T15:31:01;4.10;;;2.85;;
4430;SDS011;2228;48.140;11.488;2023-05-29T15:33:28;2.60;;;2.40;;
4430;SDS011;2228;48.140;11.488;2023-05-29T15:35:55;2.70;;;2.30;;
4430;SDS011;2228;48.140;11.488;2023-05-29T15:38:22;2.85;;;2.40;;
4430;SDS011;2228;48.140;11.488;2023-05-29T15:40:49;5.03;;;2.88;;
4430;SDS011;2228;48.140;11.488;2023-05-29T15:43:16;3.72;;;2.78;;
4430;SDS011;2228;48.140;11.488;2023-05-29T15:45:43;5.75;;;3.20;;
4430;SDS011;2228;48.140;11.488;2023-05-29T15:48:12;5.00;;;3.30;;
4430;SDS011;2228;48.140;11.488;2023-05-29T15:50:42;4.80;;;3.60;;
4430;SDS011;2228;48.140;11.488;2023-05-29T15:53:09;3.80;;;3.40;;
4430;SDS011;2228;48.140;11.488;2023-05-29T15:55:36;4.63;;;4.05;;
4430;SDS011;2228;48.140;11.488;2023-05-29T15:58:03;4.03;;;3.20;;
4430;SDS011;2228;48.140;11.488;2023-05-29T16:00:31;5.53;;;3.00;;
4430;SDS011;2228;48.140;11.488;2023-05-29T16:02:59;5.85;;;3.00;;
4430;SDS011;2228;48.140;11.488;2023-05-29T16:05:27;4.00;;;2.70;;
4430;SDS011;2228;48.140;11.488;2023-05-29T16:07:54;7.60;;;3.00;;
4430;SDS011;2228;48.140;11.488;2023-05-29T16:10:21;3.70;;;2.97;;
4430;SDS011;2228;48.140;11.488;2023-05-29T16:12:49;4.32;;;2.70;;
4430;SDS011;2228;48.140;11.488;2023-05-29T16:15:17;8.13;;;3.00;;
4430;SDS011;2228;48.140;11.488;2023-05-29T16:17:44;6.70;;;3.60;;
4430;SDS011;2228;48.140;11.488;2023-05-29T16:20:11;3.30;;;3.00;;
4430;SDS011;2228;48.140;11.488;2023-05-29T16:22:39;3.90;;;2.70;;
4430;SDS011;2228;48.140;11.488;2023-05-29T16:25:07;3.90;;;2.90;;
4430;SDS011;2228;48.140;11.488;2023-05-29T16:27:34;4.20;;;2.67;;
4430;SDS011;2228;48.140;11.488;2023-05-29T16:30:02;4.70;;;2.70;;
4430;SDS011;2228;48.140;11.488;2023-05-29T16:32:30;4.28;;;3.70;;
4430;SDS011;2228;48.140;11.488;2023-05-29T16:34:58;10.20;;;9.20;;
4430;SDS011;2228;48.140;11.488;2023-05-29T16:37:25;4.43;;;3.00;;
4430;SDS011;2228;48.140;11.488;2023-05-29T16:39:54;3.23;;;2.40;;
4430;SDS011;2228;48.140;11.488;2023-05-29T16:42:22;3.10;;;2.80;;
4430;SDS011;2228;48.140;11.488;2023-05-29T16:44:49;3.07;;;2.73;;
4430;SDS011;2228;48.140;11.488;2023-05-29T16:47:16;3.25;;;2.80;;
4430;SDS011;2228;48.140;11.488;2023-05-29T16:49:43;3.92;;;2.50;;
4430;SDS011;2228;48.140;11.488;2023-05-29T16:52:10;6.20;;;3.25;;
4430;SDS011;2228;48.140;11.488;2023-05-29T16:54:45;2.92;;;2.30;;
4430;SDS011;2228;48.140;11.488;2023-05-29T16:57:14;3.60;;;2.30;;
4430;SDS011;2228;48.140;11.488;2023-05-29T16:59:43;2.92;;;2.70;;
4430;SDS011;2228;48.140;11.488;2023-05-29T17:02:23;4.40;;;3.17;;
4430;SDS011;2228;48.140;11.488;2023-05-29T17:04:50;4.43;;;3.83;;
4430;SDS011;2228;48.140;11.488;2023-05-29T17:07:17;6.00;;;4.43;;
4430;SDS011;2228;48.140;11.488;2023-05-29T17:09:45;15.70;;;12.70;;
4430;SDS011;2228;48.140;11.488;2023-05-29T17:12:15;37.85;;;33.72;;
4430;SDS011;2228;48.140;11.488;2023-05-29T17:14:42;80.40;;;70.90;;
4430;SDS011;2228;48.140;11.488;2023-05-29T17:17:09;68.20;;;60.88;;
4430;SDS011;2228;48.140;11.488;2023-05-29T17:19:36;34.63;;;30.67;;
4430;SDS011;2228;48.140;11.488;2023-05-29T17:22:03;7.68;;;6.95;;
4430;SDS011;2228;48.140;11.488;2023-05-29T17:24:31;7.50;;;6.28;;
4430;SDS011;2228;48.140;11.488;2023-05-29T17:26:58;4.60;;;4.20;;
4430;SDS011;2228;48.140;11.488;2023-05-29T17:29:27;4.95;;;3.90;;
4430;SDS011;2228;48.140;11.488;2023-05-29T17:31:54;4.40;;;2.60;;
4430;SDS011;2228;48.140;11.488;2023-05-29T17:34:22;3.17;;;2.92;;
4430;SDS011;2228;48.140;11.488;2023-05-29T17:36:49;4.43;;;3.50;;
4430;SDS011;2228;48.140;11.488;2023-05-29T17:39:15;3.20;;;2.90;;
4430;SDS011;2228;48.140;11.488;2023-05-29T17:41:43;4.85;;;3.13;;
4430;SDS011;2228;48.140;11.488;2023-05-29T17:44:10;4.55;;;3.45;;
4430;SDS011;2228;48.140;11.488;2023-05-29T17:46:38;5.63;;;3.58;;
4430;SDS011;2228;48.140;11.488;2023-05-29T17:49:06;5.60;;;2.90;;
4430;SDS011;2228;48.140;11.488;2023-05-29T17:51:33;4.15;;;3.28;;
4430;SDS011;2228;48.140;11.488;2023-05-29T17:54:00;4.50;;;2.88;;
4430;SDS011;2228;48.140;11.488;2023-05-29T17:56:29;4.10;;;3.25;;
4430;SDS011;2228;48.140;11.488;2023-05-29T17:58:56;8.90;;;7.03;;
4430;SDS011;2228;48.140;11.488;2023-05-29T18:01:23;3.85;;;3.45;;
4430;SDS011;2228;48.140;11.488;2023-05-29T18:03:52;4.40;;;3.40;;
4430;SDS011;2228;48.140;11.488;2023-05-29T18:06:20;5.10;;;2.90;;
4430;SDS011;2228;48.140;11.488;2023-05-29T18:08:47;5.40;;;3.28;;
4430;SDS011;2228;48.140;11.488;2023-05-29T18:11:14;4.50;;;3.30;;
4430;SDS011;2228;48.140;11.488;2023-05-29T18:13:41;7.40;;;3.40;;
4430;SDS011;2228;48.140;11.488;2023-05-29T18:16:09;5.18;;;3.40;;
4430;SDS011;2228;48.140;11.488;2023-05-29T18:18:36;5.07;;;3.38;;
4430;SDS011;2228;48.140;11.488;2023-05-29T18:21:05;6.25;;;2.90;;
4430;SDS011;2228;48.140;11.488;2023-05-29T18:23:35;5.63;;;3.13;;
4430;SDS011;2228;48.140;11.488;2023-05-29T18:26:02;6.78;;;4.10;;
4430;SDS011;2228;48.140;11.488;2023-05-29T18:28:30;5.40;;;3.30;;
4430;SDS011;2228;48.140;11.488;2023-05-29T18:31:00;7.97;;;3.45;;
4430;SDS011;2228;48.140;11.488;2023-05-29T18:33:28;6.60;;;3.50;;
4430;SDS011;2228;48.140;11.488;2023-05-29T18:35:55;7.75;;;3.75;;
4430;SDS011;2228;48.140;11.488;2023-05-29T18:38:24;4.30;;;3.05;;
4430;SDS011;2228;48.140;11.488;2023-05-29T18:40:51;6.38;;;3.58;;
4430;SDS011;2228;48.140;11.488;2023-05-29T18:43:18;6.43;;;3.10;;
4430;SDS011;2228;48.140;11.488;2023-05-29T18:45:45;6.03;;;3.50;;
4430;SDS011;2228;48.140;11.488;2023-05-29T18:48:13;6.85;;;3.45;;
4430;SDS011;2228;48.140;11.488;2023-05-29T18:50:41;4.70;;;3.10;;
4430;SDS011;2228;48.140;11.488;2023-05-29T18:53:07;5.07;;;3.60;;
4430;SDS011;2228;48.140;11.488;2023-05-29T18:55:36;5.22;;;3.58;;
4430;SDS011;2228;48.140;11.488;2023-05-29T18:58:03;5.63;;;3.70;;
4430;SDS011;2228;48.140;11.488;2023-05-29T19:00:30;9.38;;;3.30;;
4430;SDS011;2228;48.140;11.488;2023-05-29T19:02:58;6.50;;;3.90;;
4430;SDS011;2228;48.140;11.488;2023-05-29T19:05:26;8.73;;;4.15;;
4430;SDS011;2228;48.140;11.488;2023-05-29T19:07:53;9.93;;;4.30;;
4430;SDS011;2228;48.140;11.488;2023-05-29T19:10:20;7.15;;;4.40;;
4430;SDS011;2228;48.140;11.488;2023-05-29T19:12:49;9.82;;;4.20;;
4430;SDS011;2228;48.140;11.488;2023-05-29T19:15:16;9.90;;;4.30;;
4430;SDS011;2228;48.140;11.488;2023-05-29T19:17:43;6.25;;;3.83;;
4430;SDS011;2228;48.140;11.488;2023-05-29T19:20:10;8.80;;;4.67;;
4430;SDS011;2228;48.140;11.488;2023-05-29T19:22:37;7.50;;;4.40;;
4430;SDS011;2228;48.140;11.488;2023-05-29T19:25:05;9.40;;;4.70;;
4430;SDS011;2228;48.140;11.488;2023-05-29T19:27:32;11.15;;;4.95;;
4430;SDS011;2228;48.140;11.488;2023-05-29T19:30:01;9.45;;;4.50;;
4430;SDS011;2228;48.140;11.488;2023-05-29T19:32:28;9.50;;;4.40;;
4430;SDS011;2228;48.140;11.488;2023-05-29T19:34:56;14.73;;;5.50;;
4430;SDS011;2228;48.140;11.488;2023-05-29T19:37:23;12.63;;;5.38;;
4430;SDS011;2228;48.140;11.488;2023-05-29T19:39:50;8.90;;;4.57;;
4430;SDS011;2228;48.140;11.488;2023-05-29T19:42:19;7.22;;;3.83;;
4430;SDS011;2228;48.140;11.488;2023-05-29T19:44:49;10.98;;;4.97;;
4430;SDS011;2228;48.140;11.488;2023-05-29T19:47:17;17.60;;;5.60;;
4430;SDS011;2228;48.140;11.488;2023-05-29T19:49:45;11.88;;;5.78;;
4430;SDS011;2228;48.140;11.488;2023-05-29T19:52:12;14.05;;;5.47;;
4430;SDS011;2228;48.140;11.488;2023-05-29T19:54:39;11.23;;;5.57;;
4430;SDS011;2228;48.140;11.488;2023-05-29T19:57:06;10.45;;;5.03;;
4430;SDS011;2228;48.140;11.488;2023-05-29T19:59:33;14.93;;;6.15;;
4430;SDS011;2228;48.140;11.488;2023-05-29T20:02:00;11.10;;;5.20;;
4430;SDS011;2228;48.140;11.488;2023-05-29T20:04:31;10.15;;;5.53;;
4430;SDS011;2228;48.140;11.488;2023-05-29T20:07:00;11.23;;;6.00;;
4430;SDS011;2228;48.140;11.488;2023-05-29T20:09:28;10.18;;;5.72;;
4430;SDS011;2228;48.140;11.488;2023-05-29T20:11:55;10.30;;;5.70;;
4430;SDS011;2228;48.140;11.488;2023-05-29T20:14:22;18.65;;;7.70;;
4430;SDS011;2228;48.140;11.488;2023-05-29T20:16:49;14.07;;;7.50;;
4430;SDS011;2228;48.140;11.488;2023-05-29T20:19:16;15.27;;;8.02;;
4430;SDS011;2228;48.140;11.488;2023-05-29T20:21:45;16.45;;;7.90;;
4430;SDS011;2228;48.140;11.488;2023-05-29T20:24:13;13.85;;;7.32;;
4430;SDS011;2228;48.140;11.488;2023-05-29T20:26:40;12.95;;;6.93;;
4430;SDS011;2228;48.140;11.488;2023-05-29T20:29:07;10.80;;;6.72;;
4430;SDS011;2228;48.140;11.488;2023-05-29T20:31:35;14.23;;;6.60;;
4430;SDS011;2228;48.140;11.488;2023-05-29T20:34:02;14.00;;;6.80;;
4430;SDS011;2228;48.140;11.488;2023-05-29T20:36:31;7.78;;;5.00;;
4430;SDS011;2228;48.140;11.488;2023-05-29T20:39:00;12.60;;;6.57;;
4430;SDS011;2228;48.140;11.488;2023-05-29T20:41:29;11.40;;;4.80;;
4430;SDS011;2228;48.140;11.488;2023-05-29T20:43:57;8.15;;;4.28;;
4430;SDS011;2228;48.140;11.488;2023-05-29T20:46:29;9.90;;;5.53;;
4430;SDS011;2228;48.140;11.488;2023-05-29T20:48:56;10.20;;;5.40;;
4430;SDS011;2228;48.140;11.488;2023-05-29T20:51:23;10.77;;;4.72;;
4430;SDS011;2228;48.140;11.488;2023-05-29T20:53:50;7.82;;;4.78;;
4430;SDS011;2228;48.140;11.488;2023-05-29T20:56:19;10.43;;;4.70;;
4430;SDS011;2228;48.140;11.488;2023-05-29T20:58:48;9.38;;;5.10;;
4430;SDS011;2228;48.140;11.488;2023-05-29T21:01:15;8.47;;;5.00;;
4430;SDS011;2228;48.140;11.488;2023-05-29T21:03:43;10.07;;;5.32;;
4430;SDS011;2228;48.140;11.488;2023-05-29T21:06:12;10.68;;;5.50;;
4430;SDS011;2228;48.140;11.488;2023-05-29T21:08:42;9.00;;;4.95;;
4430;SDS011;2228;48.140;11.488;2023-05-29T21:11:09;12.90;;;7.33;;
4430;SDS011;2228;48.140;11.488;2023-05-29T21:13:37;11.35;;;6.68;;
4430;SDS011;2228;48.140;11.488;2023-05-29T21:16:05;13.40;;;8.80;;
4430;SDS011;2228;48.140;11.488;2023-05-29T21:18:32;24.73;;;14.90;;
4430;SDS011;2228;48.140;11.488;2023-05-29T21:20:59;25.98;;;17.75;;
4430;SDS011;2228;48.140;11.488;2023-05-29T21:23:27;17.15;;;10.60;;
4430;SDS011;2228;48.140;11.488;2023-05-29T21:25:54;14.25;;;7.40;;
4430;SDS011;2228;48.140;11.488;2023-05-29T21:28:23;11.73;;;8.02;;
4430;SDS011;2228;48.140;11.488;2023-05-29T21:30:51;12.65;;;7.10;;
4430;SDS011;2228;48.140;11.488;2023-05-29T21:33:19;14.48;;;8.05;;
4430;SDS011;2228;48.140;11.488;2023-05-29T21:35:50;9.50;;;5.93;;
4430;SDS011;2228;48.140;11.488;2023-05-29T21:38:17;10.35;;;5.60;;
4430;SDS011;2228;48.140;11.488;2023-05-29T21:40:46;9.73;;;5.40;;
4430;SDS011;2228;48.140;11.488;2023-05-29T21:43:14;8.38;;;5.25;;
4430;SDS011;2228;48.140;11.488;2023-05-29T21:45:42;9.07;;;5.10;;